sensor_id;sensor_type;location;lat;lon;timestamp;pressure;altitude;pressure_sealevel;temperature;humidity
80184;BME280;69682;52.138;5.440;2023-10-08T00:01:29;102316.97;;;17.60;82.91
80184;BME280;69682;52.138;5.440;2023-10-08T00:04:06;102319.75;;;17.58;82.80
80184;BME280;69682;52.138;5.440;2023-10-08T00:06:34;102335.09;;;17.58;83.15
80184;BME280;69682;52.138;5.440;2023-10-08T00:09:01;102340.63;;;17.56;82.96
80184;BME280;69682;52.138;5.440;2023-10-08T00:11:38;102357.75;;;17.55;83.10
80184;BME280;69682;52.138;5.440;2023-10-08T00:14:07;102354.19;;;17.55;83.21
80184;BME280;69682;52.138;5.440;2023-10-08T00:16:37;102373.91;;;17.55;83.15
80184;BME280;69682;52.138;5.440;2023-10-08T00:19:06;102380.28;;;17.54;83.38
80184;BME280;69682;52.138;5.440;2023-10-08T00:21:48;102360.59;;;17.54;83.80
80184;BME280;69682;52.138;5.440;2023-10-08T00:24:18;102352.59;;;17.52;83.92
80184;BME280;69682;52.138;5.440;2023-10-08T00:26:44;102346.38;;;17.52;83.98
80184;BME280;69682;52.138;5.440;2023-10-08T00:29:13;102353.47;;;17.53;83.79
80184;BME280;69682;52.138;5.440;2023-10-08T00:31:44;102350.06;;;17.51;83.81
80184;BME280;69682;52.138;5.440;2023-10-08T00:34:16;102351.00;;;17.49;84.13
80184;BME280;69682;52.138;5.440;2023-10-08T00:36:47;102356.41;;;17.49;84.02
80184;BME280;69682;52.138;5.440;2023-10-08T00:39:17;102342.06;;;17.49;84.30
80184;BME280;69682;52.138;5.440;2023-10-08T00:41:52;102333.13;;;17.48;84.36
80184;BME280;69682;52.138;5.440;2023-10-08T00:44:26;102336.84;;;17.47;84.38
80184;BME280;69682;52.138;5.440;2023-10-08T00:46:57;102336.84;;;17.47;84.98
80184;BME280;69682;52.138;5.440;2023-10-08T00:49:28;102328.00;;;17.45;84.48
80184;BME280;69682;52.138;5.440;2023-10-08T00:52:14;102321.75;;;17.45;84.52
80184;BME280;69682;52.138;5.440;2023-10-08T00:54:42;102333.41;;;17.45;84.61
80184;BME280;69682;52.138;5.440;2023-10-08T00:57:21;102313.78;;;17.43;84.67
80184;BME280;69682;52.138;5.440;2023-10-08T00:59:57;102315.03;;;17.39;84.63
80184;BME280;69682;52.138;5.440;2023-10-08T01:02:29;102315.28;;;17.36;84.97
80184;BME280;69682;52.138;5.440;2023-10-08T01:05:14;102312.84;;;17.33;85.31
80184;BME280;69682;52.138;5.440;2023-10-08T01:07:45;102310.16;;;17.33;85.04
80184;BME280;69682;52.138;5.440;2023-10-08T01:10:15;102319.19;;;17.32;85.30
80184;BME280;69682;52.138;5.440;2023-10-08T01:12:49;102316.91;;;17.28;85.35
80184;BME280;69682;52.138;5.440;2023-10-08T01:15:37;102317.75;;;17.28;85.52
80184;BME280;69682;52.138;5.440;2023-10-08T01:18:04;102310.78;;;17.25;85.50
80184;BME280;69682;52.138;5.440;2023-10-08T01:20:32;102308.31;;;17.22;85.33
80184;BME280;69682;52.138;5.440;2023-10-08T01:23:08;102298.66;;;17.20;85.47
80184;BME280;69682;52.138;5.440;2023-10-08T01:25:37;102315.56;;;17.22;85.40
80184;BME280;69682;52.138;5.440;2023-10-08T01:28:05;102309.31;;;17.21;85.80
80184;BME280;69682;52.138;5.440;2023-10-08T01:31:00;102320.34;;;17.18;85.70
80184;BME280;69682;52.138;5.440;2023-10-08T01:33:30;102314.47;;;17.13;86.02
80184;BME280;69682;52.138;5.440;2023-10-08T01:36:13;102328.91;;;17.12;86.07
80184;BME280;69682;52.138;5.440;2023-10-08T01:38:40;102341.50;;;17.12;85.77
80184;BME280;69682;52.138;5.440;2023-10-08T01:41:14;102345.19;;;17.11;86.27
80184;BME280;69682;52.138;5.440;2023-10-08T01:43:47;102335.41;;;17.10;85.95
80184;BME280;69682;52.138;5.440;2023-10-08T01:46:27;102334.66;;;17.08;85.93
80184;BME280;69682;52.138;5.440;2023-10-08T01:49:08;102342.63;;;17.09;86.05
80184;BME280;69682;52.138;5.440;2023-10-08T01:51:40;102342.00;;;17.06;86.39
80184;BME280;69682;52.138;5.440;2023-10-08T01:54:37;102348.38;;;17.05;86.32
80184;BME280;69682;52.138;5.440;2023-10-08T01:57:04;102372.75;;;17.03;86.15
80184;BME280;69682;52.138;5.440;2023-10-08T01:59:31;102379.22;;;17.00;86.27
80184;BME280;69682;52.138;5.440;2023-10-08T02:02:17;102384.72;;;16.99;86.50
80184;BME280;69682;52.138;5.440;2023-10-08T02:04:44;102390.09;;;16.99;86.21
80184;BME280;69682;52.138;5.440;2023-10-08T02:07:11;102393.78;;;16.98;86.42
80184;BME280;69682;52.138;5.440;2023-10-08T02:09:43;102405.50;;;16.97;86.50
80184;BME280;69682;52.138;5.440;2023-10-08T02:12:10;102385.81;;;16.96;86.95
80184;BME280;69682;52.138;5.440;2023-10-08T02:14:48;102395.22;;;16.91;86.96
80184;BME280;69682;52.138;5.440;2023-10-08T02:17:15;102391.56;;;16.92;87.40
80184;BME280;69682;52.138;5.440;2023-10-08T02:19:52;102391.44;;;16.93;87.16
80184;BME280;69682;52.138;5.440;2023-10-08T02:22:18;102384.34;;;16.92;86.81
80184;BME280;69682;52.138;5.440;2023-10-08T02:24:46;102394.97;;;16.94;87.04
80184;BME280;69682;52.138;5.440;2023-10-08T02:27:14;102376.13;;;16.94;87.35
80184;BME280;69682;52.138;5.440;2023-10-08T02:29:42;102348.25;;;16.95;87.25
80184;BME280;69682;52.138;5.440;2023-10-08T02:32:14;102392.19;;;16.95;87.43
80184;BME280;69682;52.138;5.440;2023-10-08T02:34:41;102399.50;;;16.93;87.26
80184;BME280;69682;52.138;5.440;2023-10-08T02:37:08;102410.53;;;16.90;87.46
80184;BME280;69682;52.138;5.440;2023-10-08T02:40:01;102402.59;;;16.89;87.31
80184;BME280;69682;52.138;5.440;2023-10-08T02:42:38;102382.63;;;16.91;87.48
80184;BME280;69682;52.138;5.440;2023-10-08T02:45:05;102371.00;;;16.91;87.33
80184;BME280;69682;52.138;5.440;2023-10-08T02:47:32;102357.41;;;16.92;87.33
80184;BME280;69682;52.138;5.440;2023-10-08T02:49:59;102357.53;;;16.91;87.32
80184;BME280;69682;52.138;5.440;2023-10-08T02:52:26;102366.59;;;16.90;87.32
80184;BME280;69682;52.138;5.440;2023-10-08T02:54:53;102423.59;;;16.84;87.75
80184;BME280;69682;52.138;5.440;2023-10-08T02:57:28;102388.72;;;16.82;87.62
80184;BME280;69682;52.138;5.440;2023-10-08T02:59:56;102404.75;;;16.84;87.68
80184;BME280;69682;52.138;5.440;2023-10-08T03:02:23;102396.69;;;16.84;87.67
80184;BME280;69682;52.138;5.440;2023-10-08T03:04:51;102394.00;;;16.84;87.83
80184;BME280;69682;52.138;5.440;2023-10-08T03:07:27;102371.59;;;16.83;87.89
80184;BME280;69682;52.138;5.440;2023-10-08T03:10:13;102412.09;;;16.82;87.61
80184;BME280;69682;52.138;5.440;2023-10-08T03:12:45;102389.84;;;16.79;87.72
80184;BME280;69682;52.138;5.440;2023-10-08T03:15:16;102396.94;;;16.80;87.84
80184;BME280;69682;52.138;5.440;2023-10-08T03:17:55;102400.81;;;16.76;88.01
80184;BME280;69682;52.138;5.440;2023-10-08T03:20:24;102381.13;;;16.76;88.03
80184;BME280;69682;52.138;5.440;2023-10-08T03:22:56;102406.09;;;16.78;87.29
80184;BME280;69682;52.138;5.440;2023-10-08T03:25:23;102397.16;;;16.77;87.71
80184;BME280;69682;52.138;5.440;2023-10-08T03:27:52;102379.06;;;16.79;87.54
80184;BME280;69682;52.138;5.440;2023-10-08T03:30:20;102379.19;;;16.78;87.47
80184;BME280;69682;52.138;5.440;2023-10-08T03:32:47;102375.75;;;16.76;87.74
80184;BME280;69682;52.138;5.440;2023-10-08T03:35:19;102390.16;;;16.75;87.79
80184;BME280;69682;52.138;5.440;2023-10-08T03:37:54;102414.63;;;16.72;87.89
80184;BME280;69682;52.138;5.440;2023-10-08T03:40:41;102433.56;;;16.70;87.93
80184;BME280;69682;52.138;5.440;2023-10-08T03:43:11;102442.50;;;16.71;88.01
80184;BME280;69682;52.138;5.440;2023-10-08T03:45:46;102437.84;;;16.73;87.61
80184;BME280;69682;52.138;5.440;2023-10-08T03:48:20;102433.44;;;16.72;87.86
80184;BME280;69682;52.138;5.440;2023-10-08T03:50:49;102426.22;;;16.72;87.61
80184;BME280;69682;52.138;5.440;2023-10-08T03:53:23;102434.44;;;16.71;87.78
80184;BME280;69682;52.138;5.440;2023-10-08T03:55:49;102442.50;;;16.71;87.72
80184;BME280;69682;52.138;5.440;2023-10-08T03:58:18;102457.69;;;16.72;87.42
80184;BME280;69682;52.138;5.440;2023-10-08T04:00:55;102461.59;;;16.68;87.63
80184;BME280;69682;52.138;5.440;2023-10-08T04:03:35;102462.16;;;16.60;87.09
80184;BME280;69682;52.138;5.440;2023-10-08T04:06:19;102471.66;;;16.53;87.10
80184;BME280;69682;52.138;5.440;2023-10-08T04:08:55;102479.25;;;16.48;87.00
80184;BME280;69682;52.138;5.440;2023-10-08T04:11:39;102504.75;;;16.42;86.45
80184;BME280;69682;52.138;5.440;2023-10-08T04:14:24;102489.66;;;16.28;86.57
80184;BME280;69682;52.138;5.440;2023-10-08T04:16:51;102492.03;;;16.20;86.04
80184;BME280;69682;52.138;5.440;2023-10-08T04:19:19;102504.00;;;16.16;86.09
80184;BME280;69682;52.138;5.440;2023-10-08T04:21:47;102510.91;;;16.07;85.79
80184;BME280;69682;52.138;5.440;2023-10-08T04:24:27;102501.59;;;16.00;85.42
80184;BME280;69682;52.138;5.440;2023-10-08T04:27:03;102497.50;;;15.95;85.34
80184;BME280;69682;52.138;5.440;2023-10-08T04:29:39;102492.59;;;15.88;85.26
80184;BME280;69682;52.138;5.440;2023-10-08T04:32:08;102491.91;;;15.85;85.09
80184;BME280;69682;52.138;5.440;2023-10-08T04:34:38;102487.00;;;15.79;85.52
80184;BME280;69682;52.138;5.440;2023-10-08T04:37:10;102480.13;;;15.75;85.34
80184;BME280;69682;52.138;5.440;2023-10-08T04:39:40;102467.69;;;15.74;84.88
80184;BME280;69682;52.138;5.440;2023-10-08T04:42:13;102476.16;;;15.67;85.14
80184;BME280;69682;52.138;5.440;2023-10-08T04:44:52;102463.88;;;15.63;84.91
80184;BME280;69682;52.138;5.440;2023-10-08T04:47:22;102463.34;;;15.58;85.27
80184;BME280;69682;52.138;5.440;2023-10-08T04:49:58;102455.19;;;15.60;85.24
80184;BME280;69682;52.138;5.440;2023-10-08T04:52:25;102464.97;;;15.61;85.15
80184;BME280;69682;52.138;5.440;2023-10-08T04:54:58;102493.56;;;15.62;85.17
80184;BME280;69682;52.138;5.440;2023-10-08T04:57:33;102507.22;;;15.59;85.51
80184;BME280;69682;52.138;5.440;2023-10-08T05:00:01;102514.28;;;15.60;85.44
80184;BME280;69682;52.138;5.440;2023-10-08T05:02:35;102509.03;;;15.58;85.23
80184;BME280;69682;52.138;5.440;2023-10-08T05:05:22;102508.16;;;15.58;85.06
80184;BME280;69682;52.138;5.440;2023-10-08T05:07:49;102508.38;;;15.55;85.44
80184;BME280;69682;52.138;5.440;2023-10-08T05:10:16;102509.38;;;15.54;85.45
80184;BME280;69682;52.138;5.440;2023-10-08T05:12:55;102503.34;;;15.50;85.81
80184;BME280;69682;52.138;5.440;2023-10-08T05:15:45;102508.72;;;15.50;85.87
80184;BME280;69682;52.138;5.440;2023-10-08T05:18:30;102507.97;;;15.48;85.80
80184;BME280;69682;52.138;5.440;2023-10-08T05:21:17;102521.50;;;15.47;86.27
80184;BME280;69682;52.138;5.440;2023-10-08T05:23:54;102522.25;;;15.36;86.14
80184;BME280;69682;52.138;5.440;2023-10-08T05:26:38;102531.69;;;15.29;86.43
80184;BME280;69682;52.138;5.440;2023-10-08T05:29:09;102543.28;;;15.29;85.97
80184;BME280;69682;52.138;5.440;2023-10-08T05:31:54;102544.59;;;15.24;85.78
80184;BME280;69682;52.138;5.440;2023-10-08T05:34:43;102559.72;;;15.12;85.08
80184;BME280;69682;52.138;5.440;2023-10-08T05:37:23;102546.47;;;14.96;84.96
80184;BME280;69682;52.138;5.440;2023-10-08T05:40:27;102552.44;;;14.87;84.57
80184;BME280;69682;52.138;5.440;2023-10-08T05:43:20;102560.34;;;14.75;84.21
80184;BME280;69682;52.138;5.440;2023-10-08T05:46:13;102549.16;;;14.69;83.92
80184;BME280;69682;52.138;5.440;2023-10-08T05:48:46;102574.78;;;14.60;84.06
80184;BME280;69682;52.138;5.440;2023-10-08T05:51:28;102579.84;;;14.65;84.13
80184;BME280;69682;52.138;5.440;2023-10-08T05:54:21;102610.97;;;14.67;84.36
80184;BME280;69682;52.138;5.440;2023-10-08T05:57:10;102608.69;;;14.61;84.20
80184;BME280;69682;52.138;5.440;2023-10-08T05:59:41;102578.53;;;14.58;83.47
80184;BME280;69682;52.138;5.440;2023-10-08T06:02:28;102563.50;;;14.41;83.74
80184;BME280;69682;52.138;5.440;2023-10-08T06:05:06;102554.13;;;14.34;84.06
80184;BME280;69682;52.138;5.440;2023-10-08T06:07:42;102555.84;;;14.35;84.00
80184;BME280;69682;52.138;5.440;2023-10-08T06:10:24;102572.13;;;14.31;84.19
80184;BME280;69682;52.138;5.440;2023-10-08T06:13:07;102572.91;;;14.34;84.16
80184;BME280;69682;52.138;5.440;2023-10-08T06:15:44;102586.88;;;14.39;84.04
80184;BME280;69682;52.138;5.440;2023-10-08T06:18:16;102593.00;;;14.41;84.08
80184;BME280;69682;52.138;5.440;2023-10-08T06:20:46;102614.25;;;14.44;83.46
80184;BME280;69682;52.138;5.440;2023-10-08T06:23:17;102604.31;;;14.31;83.20
80184;BME280;69682;52.138;5.440;2023-10-08T06:25:47;102599.25;;;14.27;83.46
80184;BME280;69682;52.138;5.440;2023-10-08T06:28:17;102606.53;;;14.25;83.17
80184;BME280;69682;52.138;5.440;2023-10-08T06:30:47;102612.16;;;14.20;83.28
80184;BME280;69682;52.138;5.440;2023-10-08T06:33:15;102623.00;;;14.19;83.65
80184;BME280;69682;52.138;5.440;2023-10-08T06:35:55;102621.38;;;14.16;83.38
80184;BME280;69682;52.138;5.440;2023-10-08T06:38:43;102619.84;;;14.12;83.63
80184;BME280;69682;52.138;5.440;2023-10-08T06:41:11;102621.28;;;14.03;83.33
80184;BME280;69682;52.138;5.440;2023-10-08T06:43:48;102619.34;;;14.05;83.30
80184;BME280;69682;52.138;5.440;2023-10-08T06:46:41;102641.38;;;14.11;83.55
80184;BME280;69682;52.138;5.440;2023-10-08T06:49:10;102638.81;;;14.09;83.46
80184;BME280;69682;52.138;5.440;2023-10-08T06:51:42;102626.94;;;13.99;83.71
80184;BME280;69682;52.138;5.440;2023-10-08T06:54:11;102629.59;;;13.99;83.48
80184;BME280;69682;52.138;5.440;2023-10-08T06:56:43;102625.41;;;13.95;83.38
80184;BME280;69682;52.138;5.440;2023-10-08T06:59:13;102630.84;;;13.93;83.49
80184;BME280;69682;52.138;5.440;2023-10-08T07:01:40;102638.22;;;13.90;83.40
80184;BME280;69682;52.138;5.440;2023-10-08T07:04:13;102628.09;;;13.95;83.50
80184;BME280;69682;52.138;5.440;2023-10-08T07:06:42;102634.88;;;14.00;83.55
80184;BME280;69682;52.138;5.440;2023-10-08T07:09:10;102650.84;;;14.02;83.37
80184;BME280;69682;52.138;5.440;2023-10-08T07:11:50;102647.31;;;14.01;83.30
80184;BME280;69682;52.138;5.440;2023-10-08T07:14:24;102655.25;;;14.03;83.89
80184;BME280;69682;52.138;5.440;2023-10-08T07:16:57;102654.31;;;14.04;83.73
80184;BME280;69682;52.138;5.440;2023-10-08T07:19:29;102644.72;;;14.00;83.62
80184;BME280;69682;52.138;5.440;2023-10-08T07:22:05;102662.53;;;14.01;83.79
80184;BME280;69682;52.138;5.440;2023-10-08T07:24:55;102663.88;;;14.08;83.99
80184;BME280;69682;52.138;5.440;2023-10-08T07:27:25;102661.09;;;14.09;83.54
80184;BME280;69682;52.138;5.440;2023-10-08T07:29:58;102654.13;;;14.07;83.68
80184;BME280;69682;52.138;5.440;2023-10-08T07:32:29;102668.38;;;14.07;83.83
80184;BME280;69682;52.138;5.440;2023-10-08T07:34:57;102668.47;;;14.06;83.63
80184;BME280;69682;52.138;5.440;2023-10-08T07:37:41;102654.78;;;14.11;83.48
80184;BME280;69682;52.138;5.440;2023-10-08T07:40:08;102656.03;;;14.05;83.11
80184;BME280;69682;52.138;5.440;2023-10-08T07:42:38;102653.34;;;14.05;83.92
80184;BME280;69682;52.138;5.440;2023-10-08T07:45:05;102656.50;;;14.12;84.18
80184;BME280;69682;52.138;5.440;2023-10-08T07:47:32;102655.38;;;14.16;84.06
80184;BME280;69682;52.138;5.440;2023-10-08T07:49:59;102671.34;;;14.17;83.39
80184;BME280;69682;52.138;5.440;2023-10-08T07:52:25;102664.84;;;14.21;83.64
80184;BME280;69682;52.138;5.440;2023-10-08T07:54:52;102678.63;;;14.15;83.52
80184;BME280;69682;52.138;5.440;2023-10-08T07:57:19;102691.06;;;14.16;83.17
80184;BME280;69682;52.138;5.440;2023-10-08T07:59:52;102681.88;;;14.20;83.62
80184;BME280;69682;52.138;5.440;2023-10-08T08:02:28;102691.66;;;14.21;83.14
80184;BME280;69682;52.138;5.440;2023-10-08T08:04:55;102694.22;;;14.23;82.73
80184;BME280;69682;52.138;5.440;2023-10-08T08:07:21;102689.44;;;14.28;82.79
80184;BME280;69682;52.138;5.440;2023-10-08T08:09:52;102698.81;;;14.35;82.66
80184;BME280;69682;52.138;5.440;2023-10-08T08:12:27;102705.81;;;14.38;82.35
80184;BME280;69682;52.138;5.440;2023-10-08T08:14:55;102705.53;;;14.42;82.37
80184;BME280;69682;52.138;5.440;2023-10-08T08:17:22;102709.06;;;14.43;82.24
80184;BME280;69682;52.138;5.440;2023-10-08T08:19:52;102719.59;;;14.46;82.06
80184;BME280;69682;52.138;5.440;2023-10-08T08:22:20;102721.50;;;14.44;81.73
80184;BME280;69682;52.138;5.440;2023-10-08T08:24:58;102713.59;;;14.42;81.51
80184;BME280;69682;52.138;5.440;2023-10-08T08:27:50;102716.16;;;14.44;81.42
80184;BME280;69682;52.138;5.440;2023-10-08T08:30:19;102714.81;;;14.51;81.35
80184;BME280;69682;52.138;5.440;2023-10-08T08:32:46;102725.16;;;14.43;81.08
80184;BME280;69682;52.138;5.440;2023-10-08T08:35:19;102740.09;;;14.47;81.44
80184;BME280;69682;52.138;5.440;2023-10-08T08:37:47;102749.09;;;14.46;80.78
80184;BME280;69682;52.138;5.440;2023-10-08T08:40:18;102747.41;;;14.45;80.52
80184;BME280;69682;52.138;5.440;2023-10-08T08:42:47;102759.84;;;14.46;80.02
80184;BME280;69682;52.138;5.440;2023-10-08T08:45:21;102760.50;;;14.49;80.05
80184;BME280;69682;52.138;5.440;2023-10-08T08:47:51;102759.41;;;14.53;80.13
80184;BME280;69682;52.138;5.440;2023-10-08T08:50:19;102756.53;;;14.57;80.20
80184;BME280;69682;52.138;5.440;2023-10-08T08:52:47;102751.81;;;14.60;79.64
80184;BME280;69682;52.138;5.440;2023-10-08T08:55:14;102739.19;;;14.62;80.06
80184;BME280;69682;52.138;5.440;2023-10-08T08:57:46;102739.94;;;14.64;79.56
80184;BME280;69682;52.138;5.440;2023-10-08T09:00:18;102737.06;;;14.67;78.97
80184;BME280;69682;52.138;5.440;2023-10-08T09:02:46;102736.97;;;14.69;79.18
80184;BME280;69682;52.138;5.440;2023-10-08T09:05:15;102733.03;;;14.74;79.05
80184;BME280;69682;52.138;5.440;2023-10-08T09:07:57;102729.75;;;14.84;79.06
80184;BME280;69682;52.138;5.440;2023-10-08T09:10:26;102734.84;;;14.88;79.12
80184;BME280;69682;52.138;5.440;2023-10-08T09:12:57;102719.69;;;14.87;78.33
80184;BME280;69682;52.138;5.440;2023-10-08T09:15:29;102729.38;;;14.90;78.79
80184;BME280;69682;52.138;5.440;2023-10-08T09:17:56;102722.75;;;14.95;78.65
80184;BME280;69682;52.138;5.440;2023-10-08T09:20:24;102724.66;;;14.93;77.85
80184;BME280;69682;52.138;5.440;2023-10-08T09:23:11;102720.16;;;14.94;78.28
80184;BME280;69682;52.138;5.440;2023-10-08T09:25:45;102714.28;;;15.02;78.08
80184;BME280;69682;52.138;5.440;2023-10-08T09:28:11;102723.97;;;15.04;77.79
80184;BME280;69682;52.138;5.440;2023-10-08T09:30:40;102720.88;;;15.10;78.02
80184;BME280;69682;52.138;5.440;2023-10-08T09:33:09;102727.97;;;15.11;77.65
80184;BME280;69682;52.138;5.440;2023-10-08T09:35:48;102736.75;;;15.01;77.98
80184;BME280;69682;52.138;5.440;2023-10-08T09:38:50;102738.44;;;15.02;78.58
80184;BME280;69682;52.138;5.440;2023-10-08T09:52:58;102740.69;;;15.22;77.70
80184;BME280;69682;52.138;5.440;2023-10-08T09:56:18;102736.63;;;15.29;78.47
80184;BME280;69682;52.138;5.440;2023-10-08T09:59:29;102738.06;;;15.35;77.98
80184;BME280;69682;52.138;5.440;2023-10-08T10:02:47;102751.06;;;15.41;77.77
80184;BME280;69682;52.138;5.440;2023-10-08T10:19:47;102736.06;;;15.38;77.77
80184;BME280;69682;52.138;5.440;2023-10-08T10:22:35;102736.59;;;15.43;77.38
80184;BME280;69682;52.138;5.440;2023-10-08T10:25:10;102733.16;;;15.41;77.92
80184;BME280;69682;52.138;5.440;2023-10-08T10:31:34;102736.09;;;15.51;77.77
80184;BME280;69682;52.138;5.440;2023-10-08T10:38:23;102735.25;;;15.63;77.53
80184;BME280;69682;52.138;5.440;2023-10-08T10:41:59;102734.88;;;15.70;77.69
80184;BME280;69682;52.138;5.440;2023-10-08T10:45:23;102739.09;;;15.74;77.20
80184;BME280;69682;52.138;5.440;2023-10-08T10:56:05;102733.16;;;15.69;77.37
80184;BME280;69682;52.138;5.440;2023-10-08T11:02:45;102719.50;;;15.72;77.70
80184;BME280;69682;52.138;5.440;2023-10-08T11:05:29;102718.97;;;15.79;77.91
80184;BME280;69682;52.138;5.440;2023-10-08T11:08:12;102711.91;;;15.91;77.28
80184;BME280;69682;52.138;5.440;2023-10-08T11:10:56;102713.84;;;15.89;77.43
80184;BME280;69682;52.138;5.440;2023-10-08T11:13:32;102726.94;;;15.81;77.21
80184;BME280;69682;52.138;5.440;2023-10-08T11:16:18;102725.66;;;15.74;77.50
80184;BME280;69682;52.138;5.440;2023-10-08T11:22:20;102724.69;;;15.87;77.68
80184;BME280;69682;52.138;5.440;2023-10-08T11:24:49;102716.53;;;15.89;77.18
80184;BME280;69682;52.138;5.440;2023-10-08T11:27:20;102718.16;;;15.92;77.08
80184;BME280;69682;52.138;5.440;2023-10-08T11:30:05;102718.75;;;15.82;76.71
80184;BME280;69682;52.138;5.440;2023-10-08T11:32:38;102710.69;;;15.70;77.29
80184;BME280;69682;52.138;5.440;2023-10-08T11:35:05;102711.47;;;15.72;77.37
80184;BME280;69682;52.138;5.440;2023-10-08T11:37:46;102713.59;;;15.79;77.31
80184;BME280;69682;52.138;5.440;2023-10-08T11:40:24;102708.13;;;15.81;77.66
80184;BME280;69682;52.138;5.440;2023-10-08T11:43:10;102707.84;;;15.85;77.20
80184;BME280;69682;52.138;5.440;2023-10-08T11:45:45;102714.78;;;15.88;77.57
80184;BME280;69682;52.138;5.440;2023-10-08T11:48:15;102709.31;;;15.89;77.42
80184;BME280;69682;52.138;5.440;2023-10-08T11:50:48;102705.78;;;15.89;76.36
80184;BME280;69682;52.138;5.440;2023-10-08T11:53:17;102703.41;;;15.84;76.85
80184;BME280;69682;52.138;5.440;2023-10-08T11:55:45;102699.50;;;15.76;76.96
80184;BME280;69682;52.138;5.440;2023-10-08T11:58:14;102698.16;;;15.83;76.98
80184;BME280;69682;52.138;5.440;2023-10-08T12:00:45;102696.19;;;15.85;77.13
80184;BME280;69682;52.138;5.440;2023-10-08T12:03:14;102691.78;;;15.97;76.76
80184;BME280;69682;52.138;5.440;2023-10-08T12:05:48;102687.41;;;15.96;76.23
80184;BME280;69682;52.138;5.440;2023-10-08T12:08:18;102678.25;;;15.85;76.55
80184;BME280;69682;52.138;5.440;2023-10-08T12:10:47;102667.94;;;15.92;76.73
80184;BME280;69682;52.138;5.440;2023-10-08T12:13:15;102665.56;;;15.87;76.61
80184;BME280;69682;52.138;5.440;2023-10-08T12:15:46;102657.41;;;15.89;76.66
80184;BME280;69682;52.138;5.440;2023-10-08T12:18:14;102652.97;;;15.88;76.64
80184;BME280;69682;52.138;5.440;2023-10-08T12:20:54;102649.22;;;15.90;76.64
80184;BME280;69682;52.138;5.440;2023-10-08T12:23:21;102647.81;;;15.85;76.51
80184;BME280;69682;52.138;5.440;2023-10-08T12:25:55;102639.22;;;15.80;76.90
80184;BME280;69682;52.138;5.440;2023-10-08T12:28:23;102643.63;;;15.81;76.67
80184;BME280;69682;52.138;5.440;2023-10-08T12:30:54;102637.63;;;15.77;77.10
80184;BME280;69682;52.138;5.440;2023-10-08T12:33:20;102635.34;;;15.84;76.79
80184;BME280;69682;52.138;5.440;2023-10-08T12:35:53;102635.34;;;15.84;76.62
80184;BME280;69682;52.138;5.440;2023-10-08T12:38:23;102626.84;;;15.90;77.43
80184;BME280;69682;52.138;5.440;2023-10-08T12:40:49;102624.91;;;16.05;77.19
80184;BME280;69682;52.138;5.440;2023-10-08T12:43:20;102626.31;;;16.10;76.13
80184;BME280;69682;52.138;5.440;2023-10-08T12:45:48;102618.78;;;16.03;76.25
80184;BME280;69682;52.138;5.440;2023-10-08T12:48:25;102628.03;;;15.99;76.30
80184;BME280;69682;52.138;5.440;2023-10-08T12:50:56;102627.81;;;16.02;76.16
80184;BME280;69682;52.138;5.440;2023-10-08T12:53:28;102613.19;;;15.93;76.33
80184;BME280;69682;52.138;5.440;2023-10-08T12:56:04;102609.97;;;16.01;76.41
80184;BME280;69682;52.138;5.440;2023-10-08T12:58:42;102609.63;;;16.05;76.70
80184;BME280;69682;52.138;5.440;2023-10-08T13:01:15;102608.25;;;16.12;76.69
80184;BME280;69682;52.138;5.440;2023-10-08T13:03:45;102610.81;;;16.14;76.36
80184;BME280;69682;52.138;5.440;2023-10-08T13:06:19;102603.38;;;16.18;76.93
80184;BME280;69682;52.138;5.440;2023-10-08T13:08:49;102612.72;;;16.25;76.34
80184;BME280;69682;52.138;5.440;2023-10-08T13:11:20;102604.75;;;16.23;76.21
80184;BME280;69682;52.138;5.440;2023-10-08T13:13:53;102601.34;;;16.21;75.55
80184;BME280;69682;52.138;5.440;2023-10-08T13:16:26;102611.03;;;16.24;76.44
80184;BME280;69682;52.138;5.440;2023-10-08T13:18:54;102612.41;;;16.17;75.25
80184;BME280;69682;52.138;5.440;2023-10-08T13:21:23;102609.94;;;16.13;74.99
80184;BME280;69682;52.138;5.440;2023-10-08T13:23:56;102609.84;;;16.02;75.15
80184;BME280;69682;52.138;5.440;2023-10-08T13:26:23;102613.16;;;16.06;75.31
80184;BME280;69682;52.138;5.440;2023-10-08T13:28:51;102611.16;;;16.09;75.51
80184;BME280;69682;52.138;5.440;2023-10-08T13:31:17;102612.75;;;16.12;75.09
80184;BME280;69682;52.138;5.440;2023-10-08T13:33:45;102607.78;;;16.19;74.88
80184;BME280;69682;52.138;5.440;2023-10-08T13:36:19;102608.03;;;16.16;74.84
80184;BME280;69682;52.138;5.440;2023-10-08T13:38:46;102606.28;;;16.15;75.09
80184;BME280;69682;52.138;5.440;2023-10-08T13:41:14;102614.25;;;16.16;75.15
80184;BME280;69682;52.138;5.440;2023-10-08T13:43:49;102615.97;;;16.17;75.24
80184;BME280;69682;52.138;5.440;2023-10-08T13:46:19;102618.47;;;16.07;75.13
80184;BME280;69682;52.138;5.440;2023-10-08T13:48:49;102621.91;;;16.09;75.63
80184;BME280;69682;52.138;5.440;2023-10-08T13:51:20;102622.41;;;16.15;75.38
80184;BME280;69682;52.138;5.440;2023-10-08T13:54:05;102622.41;;;16.15;75.46
80184;BME280;69682;52.138;5.440;2023-10-08T13:56:33;102612.19;;;16.20;75.10
80184;BME280;69682;52.138;5.440;2023-10-08T13:59:01;102605.66;;;16.24;75.23
80184;BME280;69682;52.138;5.440;2023-10-08T14:01:41;102601.56;;;16.18;75.34
80184;BME280;69682;52.138;5.440;2023-10-08T14:04:14;102602.84;;;16.25;76.00
80184;BME280;69682;52.138;5.440;2023-10-08T14:07:01;102593.47;;;16.31;75.66
80184;BME280;69682;52.138;5.440;2023-10-08T14:09:29;102583.91;;;16.27;75.08
80184;BME280;69682;52.138;5.440;2023-10-08T14:12:05;102594.22;;;16.20;75.56
80184;BME280;69682;52.138;5.440;2023-10-08T14:14:34;102582.28;;;16.24;75.61
80184;BME280;69682;52.138;5.440;2023-10-08T14:17:02;102581.00;;;16.30;75.50